Time;durP1;ratioP1;P1;durP2;ratioP2;P2;SDS_P1;SDS_P2;PMS_P1;PMS_P2;Temp;Humidity;BMP_temperature;BMP_pressure;BME280_temperature;BME280_humidity;BME280_pressure;Samples;Min_cycle;Max_cycle;Signal;HPM_P1;HPM_P2
2022/08/23 00:00:11;;;;;;;6.63;3.15;;;19.50;71.90;;;18.73;55.57;97238.66;4990428;28;20414;-72
2022/08/23 00:02:37;;;;;;;6.38;2.88;;;19.50;72.60;;;18.73;55.82;97231.41;4990269;28;20438;-71
2022/08/23 00:05:04;;;;;;;6.43;2.80;;;19.50;72.70;;;18.80;54.88;97230.97;4989873;28;20406;-72
2022/08/23 00:07:30;;;;;;;5.22;2.83;;;19.50;72.20;;;18.69;55.56;97235.81;4990189;28;20880;-72
2022/08/23 00:09:57;;;;;;;3.63;2.40;;;19.40;72.30;;;18.68;55.25;97233.44;4990232;28;20422;-72
2022/08/23 00:12:23;;;;;;;6.28;2.88;;;19.40;72.50;;;18.68;54.88;97223.50;4990191;28;20444;-72
2022/08/23 00:14:52;;;;;;;5.70;2.90;;;19.40;72.10;;;18.65;54.85;97224.09;4989705;28;20406;-73
2022/08/23 00:17:19;;;;;;;5.82;2.65;;;19.40;72.30;;;18.54;55.59;97225.44;4990161;28;20410;-72
2022/08/23 00:19:46;;;;;;;6.10;3.10;;;19.30;72.70;;;18.55;55.26;97225.13;4990130;28;20426;-72
2022/08/23 00:22:14;;;;;;;5.70;2.58;;;19.30;72.50;;;18.52;55.54;97227.63;4990039;28;20389;-73
2022/08/23 00:24:40;;;;;;;4.43;2.80;;;19.20;72.70;;;18.47;55.44;97225.06;4989824;28;20497;-72
2022/08/23 00:27:12;;;;;;;4.93;2.50;;;19.20;72.70;;;18.42;55.85;97219.81;4993594;28;20553;-73
2022/08/23 00:29:42;;;;;;;5.40;2.63;;;19.20;73.20;;;18.42;55.75;97215.25;4976003;28;20465;-71
2022/08/23 00:32:12;;;;;;;6.18;2.75;;;19.10;72.80;;;18.49;54.84;97220.22;4993538;28;20418;-73
2022/08/23 00:34:39;;;;;;;6.70;2.60;;;19.10;72.10;;;18.35;55.32;97216.78;4933062;28;1732133;-72
2022/08/23 00:37:06;;;;;;;6.97;2.70;;;19.10;72.60;;;18.31;55.61;97205.09;4994703;28;20402;-72
2022/08/23 00:39:32;;;;;;;4.15;2.33;;;19.00;72.70;;;18.29;55.72;97209.97;4977239;28;20442;-72
2022/08/23 00:47:38;;;;;;;7.57;2.83;;;19.00;72.90;;;18.36;54.34;97203.06;4994654;28;20408;-72
2022/08/23 00:47:39;;;;;;;4.77;2.70;;;19.00;72.50;;;18.27;55.71;97214.84;4994466;28;20570;-73
2022/08/23 00:50:16;;;;;;;6.32;2.70;;;19.00;72.90;;;18.23;55.71;97211.97;4994576;28;20816;-72
2022/08/23 00:52:51;;;;;;;3.97;2.77;;;19.00;73.20;;;18.25;56.08;97214.34;4994072;28;20418;-72
2022/08/23 00:55:18;;;;;;;5.05;2.60;;;19.00;73.50;;;18.24;55.49;97220.81;4994275;28;20418;-73
2022/08/23 00:57:45;;;;;;;6.75;3.03;;;19.00;73.10;;;18.25;55.24;97217.84;4994399;28;20434;-73
2022/08/23 01:00:14;;;;;;;4.67;2.60;;;19.00;72.80;;;18.11;56.32;97217.09;4994369;28;20769;-73
2022/08/23 01:02:41;;;;;;;6.80;2.85;;;18.90;73.60;;;18.15;55.51;97224.22;4993872;28;20403;-71
2022/08/23 01:05:07;;;;;;;9.23;2.67;;;18.90;73.20;;;18.10;55.74;97216.31;4993924;28;20506;-72
2022/08/23 01:07:45;;;;;;;6.38;3.10;;;18.80;73.50;;;18.00;56.53;97224.56;4994241;28;20421;-72
2022/08/23 01:10:19;;;;;;;4.72;2.50;;;18.80;73.90;;;17.97;56.28;97225.16;4994149;28;20406;-72
2022/08/23 01:12:53;;;;;;;5.05;2.80;;;18.80;73.70;;;17.94;56.15;97228.44;4993640;28;20920;-71
2022/08/23 01:15:25;;;;;;;6.03;2.45;;;18.70;73.50;;;17.86;56.57;97228.38;4976405;28;20473;-72
2022/08/23 01:18:01;;;;;;;5.00;2.40;;;18.70;74.00;;;17.81;56.60;97223.94;4994004;28;20405;-75
2022/08/23 01:20:34;;;;;;;3.53;2.33;;;18.60;74.10;;;17.82;56.70;97219.38;4994039;28;20884;-74
2022/08/23 01:23:06;;;;;;;7.50;2.95;;;18.60;74.00;;;17.86;55.87;97212.31;4993429;28;20402;-72
2022/08/23 01:25:35;;;;;;;5.05;2.53;;;18.60;73.60;;;17.79;55.57;97218.06;4993735;28;20782;-74
2022/08/23 01:28:02;;;;;;;4.63;2.30;;;18.50;73.20;;;17.70;56.36;97214.50;4993730;28;20402;-71
2022/08/23 01:30:31;;;;;;;3.60;2.30;;;18.40;73.80;;;17.69;56.27;97208.38;4993718;28;20768;-72
2022/08/23 01:33:02;;;;;;;4.00;2.30;;;18.50;74.00;;;17.68;56.58;97214.00;4993273;28;20513;-72
2022/08/23 01:35:38;;;;;;;9.57;2.53;;;18.40;74.10;;;17.71;56.19;97210.75;4992858;23;20988;-76
2022/08/23 01:38:05;;;;;;;5.82;2.50;;;18.50;73.90;;;17.74;55.79;97215.50;4974023;28;20401;-76
2022/08/23 01:40:34;;;;;;;3.85;2.40;;;18.50;74.20;;;17.67;56.54;97207.06;4974195;28;20435;-75
2022/08/23 01:43:00;;;;;;;4.30;2.20;;;18.50;74.00;;;17.67;56.75;97213.22;4973573;28;20432;-76
2022/08/23 01:45:28;;;;;;;5.68;2.60;;;18.40;74.30;;;17.75;56.22;97214.41;4988873;28;20409;-75
2022/08/23 01:47:55;;;;;;;5.32;3.00;;;18.50;74.00;;;17.70;56.58;97219.88;4993373;28;20450;-75
2022/08/23 01:50:21;;;;;;;6.20;2.33;;;18.50;74.40;;;17.68;56.85;97227.41;4993400;28;20410;-75
2022/08/23 01:52:47;;;;;;;5.15;2.63;;;18.50;74.60;;;17.65;56.89;97223.47;4992866;28;20446;-75
2022/08/23 01:55:13;;;;;;;4.88;2.70;;;18.40;74.60;;;17.70;56.13;97223.34;4993238;28;20861;-75
2022/08/23 01:57:42;;;;;;;3.70;2.58;;;18.40;73.80;;;17.60;56.77;97226.19;4993290;28;20907;-76
2022/08/23 02:00:09;;;;;;;6.60;2.60;;;18.40;74.50;;;17.53;56.98;97225.81;4975895;28;20823;-75
2022/08/23 02:02:36;;;;;;;5.20;2.75;;;18.30;74.70;;;17.54;56.95;97221.25;4993105;28;20892;-76
2022/08/23 02:05:03;;;;;;;6.75;2.78;;;18.30;74.60;;;17.49;57.17;97224.03;4992657;28;20402;-76
2022/08/23 02:07:29;;;;;;;3.00;2.50;;;18.30;74.90;;;17.44;57.52;97219.59;4993069;28;20776;-76
2022/08/23 02:09:55;;;;;;;5.30;2.80;;;18.20;75.20;;;17.42;57.37;97229.78;4992976;28;20406;-75
2022/08/23 02:12:21;;;;;;;3.80;2.57;;;18.30;75.30;;;17.42;57.04;97232.47;4992927;28;20591;-76
2022/08/23 02:14:48;;;;;;;4.45;2.38;;;18.20;75.10;;;17.37;57.05;97238.69;4992451;28;20505;-76
2022/08/23 02:17:15;;;;;;;3.70;2.30;;;18.10;75.00;;;17.28;57.28;97237.84;4992882;28;20438;-75
2022/08/23 02:19:42;;;;;;;4.07;2.50;;;18.10;75.30;;;17.22;57.72;97228.28;4992939;28;20409;-75
2022/08/23 02:22:10;;;;;;;5.87;2.67;;;18.10;75.70;;;17.22;57.86;97232.84;4992954;28;20390;-76
2022/08/23 02:24:42;;;;;;;6.78;2.55;;;18.00;75.90;;;17.16;58.66;97237.50;4992188;28;20410;-75
2022/08/23 02:27:08;;;;;;;6.00;2.70;;;18.00;76.50;;;17.19;58.12;97222.75;4992777;28;20398;-75
2022/08/23 02:29:35;;;;;;;4.72;2.60;;;18.00;76.20;;;17.23;57.56;97229.88;4992651;28;20417;-75
2022/08/23 02:32:03;;;;;;;6.10;3.05;;;18.00;75.90;;;17.22;57.57;97227.50;4992506;28;20426;-76
2022/08/23 02:34:30;;;;;;;4.60;2.60;;;18.00;75.70;;;17.16;57.78;97239.41;4991906;28;20792;-75
2022/08/23 02:36:56;;;;;;;3.92;2.75;;;18.00;75.90;;;17.07;58.53;97236.59;4992567;28;20407;-75
2022/08/23 02:39:24;;;;;;;5.85;2.63;;;17.90;76.70;;;17.03;58.79;97238.31;4992427;28;20403;-76
2022/08/23 02:41:50;;;;;;;6.13;2.97;;;17.90;77.00;;;17.05;58.92;97238.81;4992508;28;20403;-76
2022/08/23 02:44:18;;;;;;;4.45;2.72;;;17.90;77.20;;;17.10;58.05;97236.03;4991787;28;20413;-76
2022/08/23 02:46:45;;;;;;;5.10;2.50;;;17.90;76.50;;;17.00;58.49;97239.69;4992349;28;21058;-76
2022/08/23 02:49:13;;;;;;;7.07;2.88;;;17.80;76.90;;;16.97;58.54;97234.16;4991795;28;20402;-75
2022/08/23 02:51:39;;;;;;;5.43;2.92;;;17.80;77.00;;;16.92;58.80;97227.00;4992287;28;20411;-75
2022/08/23 02:54:05;;;;;;;4.18;2.40;;;17.70;77.20;;;16.92;58.63;97235.00;4991672;28;20506;-75
2022/08/23 02:56:32;;;;;;;4.30;2.78;;;17.70;77.20;;;16.89;59.02;97238.28;4992157;28;20407;-75
2022/08/23 02:58:59;;;;;;;3.75;2.45;;;17.70;77.70;;;16.85;59.69;97239.16;4992108;28;20402;-75
2022/08/23 03:01:28;;;;;;;7.53;3.03;;;17.70;78.00;;;16.86;59.62;97243.41;4992014;28;20406;-75
2022/08/23 03:03:55;;;;;;;3.35;2.65;;;17.70;78.00;;;16.85;59.85;97241.84;4991322;28;20434;-75
2022/08/23 03:06:23;;;;;;;7.50;2.90;;;17.70;78.50;;;16.92;58.84;97239.56;4992110;28;20493;-74
2022/08/23 03:08:49;;;;;;;5.15;3.00;;;17.70;77.60;;;16.86;59.02;97246.88;4991999;28;20433;-76
2022/08/23 03:11:19;;;;;;;4.47;2.72;;;17.70;77.80;;;16.86;58.53;97238.88;4991833;28;20796;-77
2022/08/23 03:13:46;;;;;;;5.00;2.72;;;17.60;77.60;;;16.75;59.44;97242.03;4991240;28;20784;-76
2022/08/23 03:16:14;;;;;;;3.80;2.50;;;17.60;78.20;;;16.73;60.18;97242.31;4991821;28;20411;-76
2022/08/23 03:18:41;;;;;;;4.53;2.83;;;17.50;78.80;;;16.77;59.81;97247.84;4991820;28;20405;-77
2022/08/23 03:21:08;;;;;;;4.95;2.80;;;17.50;78.70;;;16.73;59.66;97253.00;4991785;28;20402;-76
2022/08/23 03:23:37;;;;;;;4.68;2.90;;;17.50;78.40;;;16.71;59.63;97252.50;4991176;28;20414;-76
2022/08/23 03:26:06;;;;;;;4.72;2.70;;;17.50;78.50;;;16.67;59.88;97248.03;4991753;28;20460;-75
2022/08/23 03:28:33;;;;;;;4.18;2.67;;;17.50;78.80;;;16.65;59.93;97251.00;4991649;28;20402;-76
2022/08/23 03:31:00;;;;;;;4.55;2.70;;;17.50;78.90;;;16.67;59.72;97248.03;4991640;28;20406;-76
2022/08/23 03:33:26;;;;;;;4.17;2.50;;;17.50;78.60;;;16.64;59.94;97241.41;4990874;28;20422;-76
2022/08/23 03:35:56;;;;;;;3.88;2.30;;;17.40;78.70;;;16.60;60.07;97249.22;4991412;28;20919;-76
2022/08/23 03:38:22;;;;;;;4.53;2.50;;;17.40;79.00;;;16.60;60.26;97251.06;4991420;28;20453;-76
2022/08/23 03:40:51;;;;;;;5.80;2.92;;;17.40;79.20;;;16.58;60.55;97254.03;4991363;28;20402;-76
2022/08/23 03:43:17;;;;;;;4.63;2.80;;;17.40;79.50;;;16.59;60.29;97252.16;4990868;28;20461;-75
2022/08/23 03:45:44;;;;;;;2.60;2.30;;;17.40;79.40;;;16.54;60.87;97247.66;4991266;28;20505;-76
2022/08/23 03:48:10;;;;;;;6.45;2.60;;;17.40;79.90;;;16.62;60.05;97248.91;4991388;28;20501;-77
2022/08/23 03:50:36;;;;;;;6.30;2.72;;;17.40;79.50;;;16.59;60.07;97255.63;4973827;28;20410;-76
2022/08/23 03:53:03;;;;;;;4.63;2.75;;;17.40;79.30;;;16.51;60.77;97258.94;4990806;28;20768;-76
2022/08/23 03:55:29;;;;;;;5.97;2.60;;;17.40;79.90;;;16.51;60.36;97258.94;4991117;28;20419;-76
2022/08/23 03:57:56;;;;;;;5.20;2.58;;;17.40;79.60;;;16.56;60.02;97266.09;4991184;28;20441;-75
2022/08/23 04:00:22;;;;;;;6.57;2.58;;;17.40;79.40;;;16.54;60.13;97269.03;4990328;28;20486;-75
2022/08/23 04:02:48;;;;;;;5.10;2.80;;;17.30;79.60;;;16.46;60.70;97277.75;4990814;28;20565;-75
2022/08/23 04:05:14;;;;;;;6.28;2.40;;;17.30;80.20;;;16.44;60.67;97277.25;4990900;28;20915;-76
2022/08/23 04:07:40;;;;;;;7.10;3.03;;;17.30;80.20;;;16.49;60.05;97276.34;4991075;28;20409;-76
2022/08/23 04:10:12;;;;;;;4.22;2.50;;;17.30;79.80;;;16.39;60.42;97279.19;4991146;28;20406;-76
2022/08/23 04:12:38;;;;;;;4.10;2.33;;;17.20;79.80;;;16.32;60.95;97284.09;4990928;28;20450;-76
2022/08/23 04:15:07;;;;;;;5.18;2.88;;;17.10;80.30;;;16.31;60.78;97280.66;4973267;28;20422;-76
2022/08/23 04:17:34;;;;;;;6.65;3.13;;;17.10;80.30;;;16.26;61.17;97288.72;4991021;28;20447;-76
2022/08/23 04:20:00;;;;;;;5.63;3.00;;;17.10;80.70;;;16.29;60.94;97293.50;4991020;28;20402;-76
2022/08/23 04:22:25;;;;;;;7.78;2.80;;;17.10;80.60;;;16.28;61.19;97291.91;4990877;28;20399;-76
2022/08/23 04:24:51;;;;;;;3.40;2.42;;;17.10;80.80;;;16.22;61.50;97290.41;4990448;28;20780;-76
2022/08/23 04:27:17;;;;;;;7.10;2.80;;;17.10;81.10;;;16.20;61.61;97279.19;4990876;28;20414;-76
2022/08/23 04:29:43;;;;;;;3.80;2.63;;;17.10;81.40;;;16.21;61.75;97280.78;4990816;28;20410;-76
2022/08/23 04:32:11;;;;;;;5.50;2.40;;;17.00;81.50;;;16.24;61.21;97282.88;4990737;28;20430;-76
2022/08/23 04:34:38;;;;;;;4.55;2.50;;;17.00;81.20;;;16.25;61.09;97290.59;4990031;28;20902;-76
2022/08/23 04:37:05;;;;;;;6.35;2.53;;;17.10;80.70;;;16.23;60.84;97292.78;4973202;28;20772;-76
2022/08/23 04:42:16;;;;;;;5.60;2.63;;;17.10;80.80;;;16.21;61.13;97300.28;4990889;28;20460;-75
2022/08/23 04:42:17;;;;;;;4.32;2.60;;;17.10;81.00;;;16.15;61.63;97308.66;4990570;28;20461;-76
2022/08/23 04:44:43;;;;;;;4.90;2.63;;;17.00;81.50;;;16.20;60.99;97309.38;4990144;28;20814;-76
2022/08/23 04:47:10;;;;;;;4.13;2.70;;;17.00;81.00;;;16.17;61.56;97309.94;4990565;28;20407;-76
2022/08/23 04:49:36;;;;;;;4.38;2.60;;;16.90;81.50;;;16.10;61.97;97314.03;4990738;28;20484;-76
2022/08/23 04:52:03;;;;;;;6.75;3.10;;;16.90;81.90;;;16.05;62.30;97320.25;4990588;28;20446;-75
2022/08/23 04:54:29;;;;;;;5.25;2.90;;;16.90;82.20;;;16.09;62.11;97318.59;4990130;28;20417;-76
2022/08/23 04:56:55;;;;;;;5.70;3.20;;;16.90;82.20;;;16.09;62.20;97318.59;4990826;28;20776;-76
2022/08/23 04:59:22;;;;;;;6.65;3.10;;;16.90;82.30;;;16.18;61.67;97319.53;4990601;28;20419;-76
2022/08/23 05:01:48;;;;;;;4.30;2.63;;;17.00;82.10;;;16.07;62.44;97326.13;4990523;28;20908;-75
2022/08/23 05:04:16;;;;;;;4.85;2.50;;;16.90;82.70;;;16.10;62.48;97332.75;4989990;28;20418;-75
2022/08/23 05:06:42;;;;;;;5.03;2.90;;;16.90;83.00;;;16.23;61.77;97330.19;4990474;28;20442;-75
2022/08/23 05:09:08;;;;;;;4.18;3.05;;;16.90;82.40;;;16.14;62.35;97323.88;4990448;28;20494;-75
2022/08/23 05:11:34;;;;;;;4.43;2.58;;;16.90;82.90;;;16.13;62.94;97332.97;4992103;28;20973;-75
2022/08/23 05:14:00;;;;;;;4.68;3.00;;;16.90;83.30;;;16.13;62.72;97324.16;4993572;28;20989;-76
2022/08/23 05:16:26;;;;;;;5.28;2.92;;;16.90;83.30;;;16.15;62.87;97324.69;4993951;28;20406;-76
2022/08/23 05:18:52;;;;;;;5.87;3.13;;;16.90;83.60;;;16.20;62.67;97327.28;4994069;28;20433;-75
2022/08/23 05:21:22;;;;;;;4.82;2.58;;;17.00;83.40;;;16.18;62.79;97332.09;4993871;28;20464;-76
2022/08/23 05:23:49;;;;;;;4.25;2.95;;;17.00;83.60;;;16.23;62.99;97337.41;4993364;28;20406;-75
2022/08/23 05:26:15;;;;;;;6.30;2.95;;;17.00;83.90;;;16.27;62.90;97335.72;4993789;28;20411;-75
2022/08/23 05:28:44;;;;;;;6.88;3.17;;;17.10;84.00;;;16.31;62.68;97330.59;4993775;28;20914;-75
2022/08/23 05:31:14;;;;;;;6.03;2.90;;;17.10;83.80;;;16.30;62.93;97334.34;4993734;28;20402;-75
2022/08/23 05:33:42;;;;;;;7.45;3.20;;;17.00;84.00;;;16.35;62.82;97331.59;4992996;28;20407;-75
2022/08/23 05:36:11;;;;;;;7.15;3.42;;;17.10;84.20;;;16.37;62.79;97332.13;4993527;28;20464;-75
2022/08/23 05:38:40;;;;;;;5.70;3.00;;;17.10;84.20;;;16.37;63.45;97332.91;4993571;28;20846;-75
2022/08/23 05:41:07;;;;;;;4.95;3.00;;;17.10;84.70;;;16.46;63.32;97338.41;4993507;28;20403;-75
2022/08/23 05:43:34;;;;;;;4.15;2.90;;;17.20;84.90;;;16.49;63.91;97338.59;4993106;28;20471;-75
2022/08/23 05:46:03;;;;;;;6.65;2.95;;;17.30;85.50;;;16.58;63.54;97333.41;4993498;28;20410;-76
2022/08/23 05:48:30;;;;;;;4.40;2.70;;;17.30;85.30;;;16.61;63.11;97338.97;4975978;28;20418;-75
2022/08/23 05:50:56;;;;;;;5.20;3.20;;;17.40;84.60;;;16.64;63.88;97341.06;4993422;28;20757;-76
2022/08/23 05:53:22;;;;;;;8.48;2.90;;;17.40;85.30;;;16.72;63.62;97339.63;4992776;28;20426;-75
2022/08/23 05:55:49;;;;;;;4.88;2.90;;;17.40;85.30;;;16.77;63.49;97346.75;4993102;28;20489;-75
2022/08/23 05:58:16;;;;;;;4.68;2.80;;;17.50;85.20;;;16.81;63.98;97353.91;4993182;28;20414;-75
2022/08/23 06:00:42;;;;;;;4.97;2.70;;;17.60;85.80;;;16.87;63.77;97355.44;4993173;28;20407;-76
2022/08/23 06:03:08;;;;;;;6.30;2.83;;;17.60;85.50;;;16.90;63.21;97357.53;4992892;28;20799;-75
2022/08/23 06:05:39;;;;;;;5.20;3.00;;;17.70;85.20;;;16.98;63.55;97361.41;4992989;28;20406;-75
2022/08/23 06:08:05;;;;;;;4.65;3.00;;;17.70;85.40;;;17.06;63.57;97358.06;4993122;28;20398;-75
2022/08/23 06:10:33;;;;;;;6.93;2.87;;;17.80;85.60;;;17.13;62.85;97361.16;4993088;28;20398;-75
2022/08/23 06:13:02;;;;;;;3.83;2.88;;;17.80;84.90;;;17.19;62.96;97364.53;4992419;28;20429;-75
2022/08/23 06:15:27;;;;;;;4.80;2.85;;;17.90;85.00;;;17.22;62.77;97358.59;4992714;28;20402;-75
2022/08/23 06:17:53;;;;;;;6.50;2.60;;;18.00;84.80;;;17.29;62.67;97361.69;4975389;28;20425;-75
2022/08/23 06:20:19;;;;;;;6.47;3.27;;;18.00;84.40;;;17.35;62.12;97360.50;4992808;28;20506;-75
2022/08/23 06:22:45;;;;;;;6.57;3.00;;;18.10;83.90;;;17.38;62.00;97362.59;4991636;28;20765;-75
2022/08/23 06:25:11;;;;;;;9.73;3.10;;;18.10;83.60;;;17.42;61.71;97361.72;4992629;28;20402;-75
2022/08/23 06:27:37;;;;;;;7.35;3.30;;;18.10;83.50;;;17.47;61.68;97365.38;4992660;28;20776;-75
2022/08/23 06:30:07;;;;;;;5.80;2.90;;;18.10;83.40;;;17.52;62.13;97365.28;4992784;28;20410;-76
2022/08/23 06:32:33;;;;;;;10.18;3.78;;;18.20;84.00;;;17.55;62.24;97364.69;4992545;28;20426;-75
2022/08/23 06:34:59;;;;;;;8.13;3.60;;;18.30;84.00;;;17.58;62.26;97361.44;4991830;28;20421;-75
2022/08/23 06:37:25;;;;;;;10.10;3.78;;;18.30;84.20;;;17.62;62.44;97365.13;4992399;28;20411;-76
2022/08/23 06:39:51;;;;;;;8.40;3.60;;;18.30;84.40;;;17.66;62.74;97364.25;4992475;28;20438;-75
2022/08/23 06:42:17;;;;;;;13.13;3.73;;;18.40;84.70;;;17.71;62.61;97360.69;4992437;28;20443;-75
2022/08/23 06:44:43;;;;;;;7.80;3.77;;;18.40;84.80;;;17.77;62.56;97372.88;4991722;28;20514;-75
2022/08/23 06:47:11;;;;;;;8.68;3.33;;;18.40;84.70;;;17.84;62.10;97369.78;4992305;28;20477;-75
2022/08/23 06:49:38;;;;;;;7.50;2.95;;;18.50;84.30;;;17.92;61.06;97371.78;4974927;28;20422;-76
2022/08/23 06:52:04;;;;;;;6.00;2.80;;;18.60;83.00;;;18.00;59.84;97371.06;4992213;28;20501;-76
2022/08/23 06:54:34;;;;;;;5.38;3.00;;;18.70;81.70;;;18.16;56.98;97378.50;4991709;28;20409;-76
2022/08/23 06:57:01;;;;;;;4.65;2.67;;;18.80;78.20;;;18.24;57.02;97376.22;4992204;28;20892;-77
2022/08/23 06:59:28;;;;;;;7.90;2.80;;;18.90;77.80;;;18.34;56.11;97370.66;4992101;28;20422;-76
2022/08/23 07:01:57;;;;;;;7.23;2.90;;;19.00;77.40;;;18.47;53.23;97372.50;4992198;28;20493;-76
2022/08/23 07:04:28;;;;;;;4.65;2.72;;;19.10;72.80;;;18.66;54.04;97383.09;4991414;28;20407;-75
2022/08/23 07:06:55;;;;;;;6.55;2.90;;;19.30;73.50;;;18.73;53.91;97376.22;4992101;28;20489;-75
2022/08/23 07:09:22;;;;;;;7.15;3.22;;;19.40;73.30;;;18.79;54.00;97380.38;4991931;28;20889;-76
2022/08/23 07:11:48;;;;;;;8.75;3.00;;;19.50;73.40;;;18.86;54.65;97378.06;4991913;28;20422;-75
2022/08/23 07:14:17;;;;;;;6.20;2.70;;;19.50;74.10;;;18.92;55.04;97376.84;4991181;28;20403;-75
2022/08/23 07:16:47;;;;;;;7.50;2.90;;;19.60;74.50;;;18.98;55.15;97385.56;4991823;28;20424;-76
2022/08/23 07:19:14;;;;;;;6.68;3.08;;;19.60;75.30;;;19.05;55.37;97388.59;4995308;28;20434;-74
2022/08/23 07:21:42;;;;;;;8.00;3.23;;;19.70;74.80;;;19.12;55.29;97386.28;4991733;28;20418;-75
2022/08/23 07:24:08;;;;;;;6.80;2.80;;;19.70;74.80;;;19.17;55.32;97393.44;4973784;28;20406;-75
2022/08/23 07:26:36;;;;;;;7.63;3.27;;;19.80;74.80;;;19.19;55.19;97386.66;4991617;28;20464;-75
2022/08/23 07:29:05;;;;;;;8.00;3.10;;;19.80;74.70;;;19.29;55.11;97394.44;4991646;28;20406;-76
2022/08/23 07:31:34;;;;;;;11.65;2.70;;;19.90;74.60;;;19.38;55.07;97391.03;4991546;28;20441;-75
2022/08/23 07:36:38;;;;;;;5.57;2.63;;;20.20;71.70;;;19.69;52.91;97398.03;4969764;28;20431;-72
2022/08/23 07:39:08;;;;;;;6.38;2.40;;;20.30;71.70;;;19.78;52.86;97394.56;4972045;28;20404;-72
2022/08/23 07:41:36;;;;;;;6.00;2.85;;;20.30;71.90;;;19.83;53.30;97392.53;4971910;28;20408;-72
2022/08/23 07:44:10;;;;;;;6.70;2.93;;;20.40;72.10;;;19.89;53.75;97399.34;4971953;28;20404;-72
2022/08/23 07:46:40;;;;;;;6.18;3.00;;;20.50;72.70;;;19.96;54.19;97399.69;4991319;28;20493;-72
2022/08/23 07:49:07;;;;;;;6.43;3.17;;;20.50;73.00;;;20.00;54.33;97403.34;4991212;28;20399;-72
2022/08/23 07:51:34;;;;;;;7.90;3.40;;;20.60;73.30;;;20.08;53.91;97404.47;4991077;28;20407;-72
2022/08/23 07:54:03;;;;;;;6.05;2.83;;;20.60;72.70;;;20.14;53.28;97397.88;4990711;28;20420;-72
2022/08/23 07:56:30;;;;;;;6.43;2.80;;;20.70;72.10;;;20.24;53.61;97404.81;4991185;28;20473;-72
2022/08/23 07:58:57;;;;;;;8.02;2.83;;;20.80;72.30;;;20.30;53.34;97407.06;4991044;28;20414;-72
2022/08/23 08:01:26;;;;;;;8.23;3.05;;;20.90;72.10;;;20.40;53.31;97408.69;4991221;28;20407;-73
2022/08/23 08:03:55;;;;;;;7.80;3.50;;;20.90;72.20;;;20.47;52.97;97412.50;4990692;28;20407;-72
2022/08/23 08:06:24;;;;;;;6.90;3.13;;;21.10;72.50;;;20.56;52.85;97415.22;4991009;28;20951;-72
2022/08/23 08:08:50;;;;;;;9.18;3.22;;;21.10;71.70;;;20.62;52.38;97408.56;4991071;28;20833;-72
2022/08/23 08:11:21;;;;;;;8.88;3.55;;;21.20;70.80;;;20.75;51.41;97412.22;4990944;28;20481;-73
2022/08/23 08:13:50;;;;;;;7.50;3.35;;;21.30;69.60;;;20.86;50.90;97414.28;4990463;28;20513;-73
2022/08/23 08:16:23;;;;;;;6.05;2.90;;;21.40;69.00;;;21.00;50.63;97410.63;4973471;28;20483;-72
2022/08/23 08:18:49;;;;;;;4.75;2.70;;;21.50;68.70;;;21.11;50.12;97422.69;4990960;28;20865;-73
2022/08/23 08:21:18;;;;;;;9.48;3.40;;;21.60;68.10;;;21.17;50.73;97421.44;4990957;28;20399;-72
2022/08/23 08:23:44;;;;;;;9.43;3.05;;;21.70;68.70;;;21.24;49.58;97421.72;4990493;28;20429;-72
2022/08/23 08:26:10;;;;;;;5.57;2.90;;;21.80;67.40;;;21.32;49.93;97422.84;4990777;28;20489;-73
2022/08/23 08:28:37;;;;;;;7.20;2.70;;;21.90;67.80;;;21.37;50.59;97423.44;4990813;28;20441;-73
2022/08/23 08:31:06;;;;;;;6.68;3.00;;;21.90;68.50;;;21.43;50.54;97421.38;4990849;28;20402;-73
2022/08/23 08:33:32;;;;;;;10.65;3.38;;;21.90;68.50;;;21.46;50.06;97423.44;4990418;28;20421;-73
2022/08/23 08:35:59;;;;;;;9.25;3.83;;;22.00;67.70;;;21.52;50.60;97427.53;4990665;28;20425;-73
2022/08/23 08:38:25;;;;;;;11.05;2.83;;;22.00;68.10;;;21.60;49.75;97424.03;4990805;28;20398;-73
2022/08/23 08:41:03;;;;;;;6.28;2.88;;;22.10;67.20;;;21.69;49.33;97429.41;4990819;28;20406;-73
2022/08/23 08:43:41;;;;;;;8.05;2.58;;;22.20;66.40;;;21.81;49.09;97437.59;4990354;28;20899;-74
2022/08/23 08:46:21;;;;;;;6.57;2.70;;;22.30;66.50;;;21.89;48.96;97431.38;4991840;28;20452;-73
2022/08/23 08:48:54;;;;;;;8.65;2.65;;;22.40;66.30;;;21.94;47.85;97433.91;4994540;28;20807;-73
2022/08/23 08:51:36;;;;;;;5.63;2.63;;;22.50;65.20;;;22.03;46.95;97432.00;4994524;28;20402;-73
2022/08/23 08:54:08;;;;;;;8.23;2.35;;;22.50;64.00;;;22.10;46.74;97426.13;4993890;28;20940;-73
2022/08/23 08:56:38;;;;;;;7.55;2.55;;;22.60;63.70;;;22.19;46.57;97427.63;4994419;28;20489;-73
2022/08/23 08:59:08;;;;;;;10.00;2.60;;;22.60;63.50;;;22.23;45.38;97433.97;4994400;28;20460;-73
2022/08/23 09:01:37;;;;;;;5.85;2.55;;;22.70;62.00;;;22.32;45.30;97429.34;4994279;28;20395;-73
2022/08/23 09:04:05;;;;;;;6.53;2.00;;;22.80;61.70;;;22.47;44.30;97432.59;4993708;28;20434;-73
2022/08/23 09:06:42;;;;;;;4.18;2.03;;;22.90;60.60;;;22.61;41.18;97435.81;4994192;28;20403;-74
2022/08/23 09:09:26;;;;;;;5.38;2.10;;;23.10;57.20;;;22.74;43.27;97437.50;4994232;28;20394;-73
2022/08/23 09:12:04;;;;;;;7.60;2.45;;;23.20;59.00;;;22.81;43.48;97431.56;4994104;28;20430;-73
2022/08/23 09:14:52;;;;;;;4.72;2.13;;;23.30;59.40;;;22.89;43.50;97441.53;4993559;28;20407;-74
2022/08/23 09:17:30;;;;;;;4.32;2.20;;;23.30;59.20;;;22.94;42.22;97435.91;4976452;28;20962;-73
2022/08/23 09:20:02;;;;;;;4.85;1.90;;;23.40;57.80;;;23.00;42.67;97432.72;4994057;28;20457;-73
2022/08/23 09:22:35;;;;;;;7.90;2.42;;;23.50;58.30;;;23.09;42.18;97425.31;4993973;28;20406;-73
2022/08/23 09:25:00;;;;;;;4.57;2.25;;;23.50;57.50;;;23.16;42.27;97430.16;4993408;28;20423;-73
2022/08/23 09:27:27;;;;;;;10.50;2.42;;;23.60;58.00;;;23.24;42.80;97439.31;4994063;28;20745;-73
2022/08/23 09:29:55;;;;;;;7.47;2.57;;;23.70;58.30;;;23.31;42.12;97434.16;4993912;28;20425;-73
2022/08/23 09:32:31;;;;;;;10.20;2.22;;;23.70;57.60;;;23.41;41.61;97436.47;4993650;28;20421;-71
2022/08/23 09:35:16;;;;;;;4.47;2.42;;;23.80;57.20;;;23.51;41.14;97431.47;4993021;28;20406;-71
2022/08/23 09:37:56;;;;;;;8.80;3.00;;;24.00;56.80;;;23.53;41.21;97436.56;4993785;28;20401;-71
2022/08/23 09:40:33;;;;;;;5.30;1.92;;;24.00;56.80;;;23.65;41.44;97435.78;4993661;28;20465;-71
2022/08/23 09:43:18;;;;;;;6.90;2.22;;;24.00;57.10;;;23.68;40.48;97427.78;4993237;28;20406;-71
2022/08/23 09:45:58;;;;;;;7.22;2.25;;;24.10;55.80;;;23.75;40.01;97432.66;4993457;28;21026;-71
2022/08/23 09:48:41;;;;;;;6.40;2.20;;;24.20;55.40;;;23.76;38.80;97432.31;4993643;28;20493;-71
2022/08/23 09:51:17;;;;;;;8.50;2.17;;;24.20;54.20;;;23.86;39.09;97434.56;4993374;28;20919;-71
2022/08/23 09:53:49;;;;;;;14.63;2.35;;;24.30;54.40;;;24.00;39.56;97434.25;4992773;28;20900;-72
2022/08/23 09:56:25;;;;;;;4.23;2.00;;;24.40;54.80;;;24.12;38.53;97439.69;4993165;28;20417;-71
2022/08/23 09:58:52;;;;;;;4.22;1.92;;;24.50;54.00;;;24.13;38.59;97429.66;4992117;28;20817;-72
2022/08/23 10:01:22;;;;;;;8.15;2.45;;;24.50;53.50;;;24.13;36.83;97435.06;4993364;28;20431;-71
2022/08/23 10:04:10;;;;;;;4.95;2.33;;;24.70;51.70;;;24.20;37.02;97428.00;4992770;28;20410;-71
2022/08/23 10:06:38;;;;;;;5.23;2.50;;;24.70;51.90;;;24.32;37.83;97434.53;4993196;28;20406;-71
2022/08/23 10:09:07;;;;;;;11.20;2.13;;;24.80;52.50;;;24.35;38.10;97431.94;4993035;28;20406;-71
2022/08/23 10:11:38;;;;;;;8.45;2.50;;;24.80;53.30;;;24.49;38.18;97428.88;4993011;28;20454;-72
2022/08/23 10:14:04;;;;;;;3.78;2.05;;;24.90;53.30;;;24.58;38.16;97434.97;4992445;28;20423;-72
2022/08/23 10:16:45;;;;;;;5.13;2.05;;;25.00;53.10;;;24.88;37.68;97428.13;4993165;28;20438;-72
2022/08/23 10:19:22;;;;;;;5.05;1.88;;;25.20;53.70;;;25.09;35.48;97429.91;4992964;28;20398;-72
2022/08/23 10:21:59;;;;;;;5.32;2.00;;;25.50;50.30;;;25.33;33.67;97421.69;4992908;28;20409;-72
2022/08/23 10:24:38;;;;;;;6.70;2.17;;;25.80;48.20;;;25.49;32.39;97427.91;4992283;28;20545;-71
2022/08/23 10:30:14;;;;;;;6.20;2.15;;;26.20;47.30;;;26.36;31.45;97430.53;4992746;28;20517;-72
2022/08/23 10:33:02;;;;;;;6.68;2.10;;;26.80;46.00;;;26.52;33.66;97419.66;4992301;28;20509;-72